createdAt,value
2018-10-01T00:01:47.443Z,6.00
2018-10-01T00:04:15.291Z,6.40
2018-10-01T00:06:43.146Z,7.33
2018-10-01T00:09:11.011Z,7.50
2018-10-01T00:11:38.884Z,6.90
2018-10-01T00:14:06.813Z,6.50
2018-10-01T00:16:34.675Z,6.53
2018-10-01T00:19:02.524Z,6.70
2018-10-01T00:21:35.916Z,6.50
2018-10-01T00:24:03.762Z,6.70
2018-10-01T00:26:31.616Z,6.03
2018-10-01T00:28:59.476Z,7.40
2018-10-01T00:31:27.335Z,7.97
2018-10-01T00:33:55.195Z,7.90
2018-10-01T00:36:23.066Z,8.60
2018-10-01T00:38:50.943Z,7.50
2018-10-01T00:41:18.795Z,7.73
2018-10-01T00:43:46.649Z,7.20
2018-10-01T00:46:14.604Z,8.63
2018-10-01T00:48:42.450Z,7.27
2018-10-01T00:51:10.336Z,6.43
2018-10-01T00:53:38.187Z,7.80
2018-10-01T00:56:06.043Z,8.03
2018-10-01T00:58:33.892Z,6.70
2018-10-01T01:01:01.751Z,6.80
2018-10-01T01:03:29.676Z,7.43
2018-10-01T01:05:57.527Z,9.50
2018-10-01T01:08:25.383Z,8.50
2018-10-01T01:10:53.255Z,9.30
2018-10-01T01:13:21.109Z,8.17
2018-10-01T01:15:48.975Z,7.77
2018-10-01T01:18:16.835Z,8.83
2018-10-01T01:20:44.679Z,8.53
2018-10-01T01:23:12.551Z,8.53
2018-10-01T01:25:40.410Z,7.23
2018-10-01T01:28:08.264Z,7.13
2018-10-01T01:30:36.124Z,7.13
2018-10-01T01:33:03.979Z,7.87
2018-10-01T01:35:31.828Z,8.20
2018-10-01T01:37:59.687Z,8.40
2018-10-01T01:40:27.531Z,8.80
2018-10-01T01:42:55.387Z,8.30
2018-10-01T01:45:23.263Z,8.03
2018-10-01T01:47:51.124Z,6.93
2018-10-01T01:50:18.975Z,6.47
2018-10-01T01:52:46.876Z,5.50
2018-10-01T01:55:14.719Z,6.90
2018-10-01T01:57:48.297Z,10.30
2018-10-01T02:00:16.155Z,7.80
2018-10-01T02:02:44.028Z,7.67
2018-10-01T02:05:11.911Z,7.43
2018-10-01T02:07:39.782Z,6.90
2018-10-01T02:10:07.644Z,7.30
2018-10-01T02:12:35.498Z,7.87
2018-10-01T02:15:03.566Z,6.40
2018-10-01T02:17:31.476Z,7.20
2018-10-01T02:19:59.407Z,6.57
2018-10-01T02:22:27.279Z,6.47
2018-10-01T02:24:55.133Z,6.13
2018-10-01T02:27:23.011Z,6.80
2018-10-01T02:29:50.871Z,6.90
2018-10-01T02:32:18.764Z,7.60
2018-10-01T02:34:46.618Z,7.40
2018-10-01T02:37:14.481Z,6.77
2018-10-01T02:39:42.332Z,7.00
2018-10-01T02:42:10.203Z,8.63
2018-10-01T02:44:38.055Z,7.83
2018-10-01T02:47:05.976Z,7.93
2018-10-01T02:49:33.823Z,8.13
2018-10-01T02:52:07.366Z,9.23
2018-10-01T02:54:35.213Z,8.40
2018-10-01T02:57:03.121Z,6.40
2018-10-01T02:59:30.987Z,6.60
2018-10-01T03:01:58.874Z,7.00
2018-10-01T03:04:27.798Z,7.77
2018-10-01T03:06:55.693Z,6.90
2018-10-01T03:09:23.556Z,7.83
2018-10-01T03:11:51.417Z,7.87
2018-10-01T03:14:19.310Z,8.20
2018-10-01T03:16:47.168Z,6.67
2018-10-01T03:19:15.056Z,7.33
2018-10-01T03:21:42.924Z,7.30
2018-10-01T03:24:10.796Z,6.63
2018-10-01T03:26:38.659Z,7.40
2018-10-01T03:29:06.546Z,6.77
2018-10-01T03:31:34.402Z,7.57
2018-10-01T03:34:02.333Z,7.53
2018-10-01T03:36:30.188Z,6.30
2018-10-01T03:38:58.056Z,7.87
2018-10-01T03:41:25.912Z,7.23
2018-10-01T03:43:53.788Z,6.13
2018-10-01T03:46:21.655Z,7.00
2018-10-01T03:48:49.535Z,6.70
2018-10-01T03:51:17.398Z,5.90
2018-10-01T03:53:45.280Z,7.00
2018-10-01T03:56:13.157Z,6.50
2018-10-01T03:58:41.022Z,7.63
2018-10-01T04:01:08.880Z,6.93
2018-10-01T04:03:36.836Z,7.80
2018-10-01T04:06:04.699Z,6.93
2018-10-01T04:08:32.577Z,6.97
2018-10-01T04:11:00.448Z,7.27
2018-10-01T04:13:28.325Z,7.27
2018-10-01T04:15:56.185Z,7.00
2018-10-01T04:18:24.055Z,8.40
2018-10-01T04:20:51.978Z,6.40
2018-10-01T04:23:19.863Z,6.53
2018-10-01T04:25:47.720Z,6.90
2018-10-01T04:28:15.656Z,7.20
2018-10-01T04:30:43.474Z,8.60
2018-10-01T04:33:11.331Z,7.80
2018-10-01T04:35:39.212Z,7.63
2018-10-01T04:38:07.078Z,8.10
2018-10-01T04:40:34.975Z,7.80
2018-10-01T04:43:02.880Z,7.40
2018-10-01T04:45:30.742Z,8.50
2018-10-01T04:47:58.607Z,9.43
2018-10-01T04:50:26.482Z,9.13
2018-10-01T04:52:54.353Z,8.67
2018-10-01T04:55:22.233Z,8.53
2018-10-01T04:57:50.099Z,7.10
2018-10-01T05:00:17.972Z,8.30
2018-10-01T05:02:45.855Z,7.87
2018-10-01T05:05:13.719Z,7.37
2018-10-01T05:07:41.571Z,7.03
2018-10-01T05:10:09.439Z,5.73
2018-10-01T05:12:37.300Z,5.80
2018-10-01T05:15:05.183Z,7.17
2018-10-01T05:17:33.047Z,7.10
2018-10-01T05:20:00.935Z,6.87
2018-10-01T05:22:28.808Z,7.33
2018-10-01T05:24:57.031Z,6.53
2018-10-01T05:27:24.916Z,6.03
2018-10-01T05:29:52.855Z,5.50
2018-10-01T05:32:20.714Z,5.60
2018-10-01T05:34:48.575Z,6.10
2018-10-01T05:37:16.431Z,6.07
2018-10-01T05:39:44.299Z,6.10
2018-10-01T05:42:12.222Z,6.70
2018-10-01T05:44:40.086Z,7.60
2018-10-01T05:47:08.051Z,7.13
2018-10-01T05:49:35.925Z,6.70
2018-10-01T05:52:03.796Z,6.10
2018-10-01T05:54:31.663Z,9.03
2018-10-01T05:56:59.547Z,6.60
2018-10-01T05:59:27.438Z,10.43
2018-10-01T06:01:55.327Z,5.40
2018-10-01T06:04:23.675Z,5.13
2018-10-01T06:06:51.532Z,5.47
2018-10-01T06:09:19.398Z,6.43
2018-10-01T06:11:50.018Z,7.67
2018-10-01T06:14:18.295Z,11.47
2018-10-01T06:16:46.232Z,10.60
2018-10-01T06:19:14.092Z,7.57
2018-10-01T06:21:41.950Z,6.73
2018-10-01T06:24:09.803Z,4.20
2018-10-01T06:26:37.700Z,4.13
2018-10-01T06:29:05.594Z,6.20
2018-10-01T06:31:33.452Z,5.57
2018-10-01T06:34:01.309Z,6.73
2018-10-01T06:36:29.179Z,7.67
2018-10-01T06:38:57.040Z,6.67
2018-10-01T06:41:24.914Z,7.60
2018-10-01T06:43:52.777Z,8.13
2018-10-01T06:46:20.649Z,8.23
2018-10-01T06:48:48.499Z,10.50
2018-10-01T06:51:16.384Z,19.50
2018-10-01T06:53:44.232Z,64.80
2018-10-01T06:56:12.107Z,359.40
2018-10-01T06:58:39.967Z,506.43
2018-10-01T07:01:07.837Z,557.97
2018-10-01T07:03:35.710Z,732.13
2018-10-01T07:06:03.579Z,509.73
2018-10-01T07:08:31.443Z,479.60
2018-10-01T07:10:59.311Z,538.40
2018-10-01T07:13:27.183Z,436.17
2018-10-01T07:15:55.067Z,419.67
2018-10-01T07:18:22.928Z,605.83
2018-10-01T07:20:50.795Z,798.90
2018-10-01T07:23:18.798Z,987.23
2018-10-01T07:25:46.584Z,860.50
2018-10-01T07:28:14.735Z,999.90
2018-10-01T07:30:42.717Z,994.87
2018-10-01T07:33:10.617Z,792.53
2018-10-01T07:35:38.528Z,786.83
2018-10-01T07:38:06.407Z,896.23
2018-10-01T07:40:34.275Z,923.60
2018-10-01T07:43:02.155Z,960.30
2018-10-01T07:45:30.032Z,986.60
2018-10-01T07:47:57.910Z,975.23
2018-10-01T07:50:25.781Z,820.33
2018-10-01T07:52:53.648Z,711.80
2018-10-01T07:55:21.513Z,837.93
2018-10-01T07:57:49.391Z,931.37
2018-10-01T08:00:17.292Z,980.00
2018-10-01T08:02:45.156Z,893.63
2018-10-01T08:05:13.047Z,999.90
2018-10-01T08:07:41.055Z,892.50
2018-10-01T08:10:08.925Z,996.20
2018-10-01T08:12:36.803Z,919.00
2018-10-01T08:15:04.700Z,994.80
2018-10-01T08:17:32.571Z,993.90
2018-10-01T08:20:00.443Z,999.90
2018-10-01T08:22:28.307Z,995.77
2018-10-01T08:24:56.174Z,996.57
2018-10-01T08:27:24.064Z,999.90
2018-10-01T08:29:52.154Z,860.17
2018-10-01T08:32:19.862Z,990.63
2018-10-01T08:34:47.739Z,904.40
2018-10-01T08:37:15.632Z,999.90
2018-10-01T08:39:43.508Z,999.90
2018-10-01T08:42:11.398Z,922.57
2018-10-01T08:44:39.347Z,999.90
2018-10-01T08:47:07.246Z,999.90
2018-10-01T08:49:44.272Z,999.90
2018-10-01T08:52:15.931Z,997.80
2018-10-01T08:54:45.622Z,999.90
2018-10-01T08:57:13.500Z,999.90
2018-10-01T08:59:41.362Z,999.90
2018-10-01T09:02:09.333Z,999.90
2018-10-01T09:04:37.162Z,981.37
2018-10-01T09:07:05.048Z,999.90
2018-10-01T09:09:32.953Z,999.90
2018-10-01T09:12:00.845Z,999.90
2018-10-01T09:14:28.802Z,999.90
2018-10-01T09:16:56.630Z,999.90
2018-10-01T09:19:24.507Z,999.90
2018-10-01T09:21:52.387Z,999.90
2018-10-01T09:24:20.296Z,999.90
2018-10-01T09:26:48.164Z,999.90
2018-10-01T09:29:16.075Z,999.90
2018-10-01T09:31:43.924Z,999.90
2018-10-01T09:34:11.812Z,999.90
2018-10-01T09:36:39.718Z,999.90
2018-10-01T09:39:08.193Z,999.90
2018-10-01T09:41:36.255Z,999.90
2018-10-01T09:44:04.180Z,999.90
2018-10-01T09:46:32.136Z,999.90
2018-10-01T09:48:59.939Z,999.90
2018-10-01T09:51:27.801Z,999.90
2018-10-01T09:53:55.696Z,999.90
2018-10-01T09:56:23.602Z,999.90
2018-10-01T09:58:51.459Z,999.90
2018-10-01T10:01:19.339Z,999.90
2018-10-01T10:03:47.238Z,999.90
2018-10-01T10:06:15.136Z,999.90
2018-10-01T10:08:43.034Z,999.90
2018-10-01T10:11:10.908Z,999.90
2018-10-01T10:13:38.774Z,999.90
2018-10-01T10:16:06.745Z,999.90
2018-10-01T10:18:34.575Z,999.90
2018-10-01T10:21:02.460Z,999.90
2018-10-01T10:23:30.327Z,999.90
2018-10-01T10:25:58.195Z,999.90
2018-10-01T10:28:26.141Z,999.90
2018-10-01T10:30:53.962Z,999.90
2018-10-01T10:33:21.857Z,999.90
2018-10-01T10:35:49.743Z,999.90
2018-10-01T10:38:17.671Z,999.90
2018-10-01T10:40:45.511Z,999.90
2018-10-01T10:43:13.572Z,999.90
2018-10-01T10:45:41.641Z,999.90
2018-10-01T10:48:09.761Z,999.90
2018-10-01T10:50:37.810Z,999.90
2018-10-01T10:53:05.643Z,999.90
2018-10-01T10:55:33.712Z,999.90
2018-10-01T10:58:01.775Z,999.90
2018-10-01T11:00:29.663Z,999.90
2018-10-01T11:02:57.724Z,999.90
2018-10-01T11:05:25.789Z,999.90
2018-10-01T11:07:53.665Z,999.90
2018-10-01T11:10:21.723Z,999.90
2018-10-01T11:12:49.788Z,999.90
2018-10-01T11:15:18.074Z,999.90
2018-10-01T11:17:45.816Z,999.90
2018-10-01T11:20:13.685Z,999.90
2018-10-01T11:22:41.533Z,999.90
2018-10-01T11:25:09.434Z,999.90
2018-10-01T11:27:37.371Z,999.90
2018-10-01T11:30:05.236Z,999.90
2018-10-01T11:32:33.120Z,999.90
2018-10-01T11:35:01.075Z,999.90
2018-10-01T11:37:28.904Z,999.90
2018-10-01T11:39:56.768Z,999.90
2018-10-01T11:42:24.828Z,999.90
2018-10-01T11:44:52.888Z,999.90
2018-10-01T11:47:20.946Z,999.90
2018-10-01T11:49:48.838Z,999.90
2018-10-01T11:52:16.898Z,999.90
2018-10-01T11:54:44.960Z,975.20
2018-10-01T11:57:13.135Z,999.90
2018-10-01T11:59:41.093Z,999.90
2018-10-01T12:02:09.163Z,999.90
2018-10-01T12:04:37.240Z,999.90
2018-10-01T12:07:05.315Z,999.90
2018-10-01T12:09:33.479Z,999.90
2018-10-01T12:12:01.459Z,999.90
2018-10-01T12:14:29.318Z,999.90
2018-10-01T12:16:57.398Z,999.90
2018-10-01T12:19:25.271Z,999.90
2018-10-01T12:21:53.348Z,999.90
2018-10-01T12:24:21.231Z,999.90
2018-10-01T12:26:49.308Z,999.90
2018-10-01T12:29:17.428Z,999.90
2018-10-01T12:31:45.446Z,999.90
2018-10-01T12:34:13.533Z,999.90
2018-10-01T12:36:41.600Z,999.90
2018-10-01T12:39:10.122Z,999.90
2018-10-01T12:41:38.104Z,999.90
2018-10-01T12:44:06.177Z,999.90
2018-10-01T12:46:34.237Z,999.90
2018-10-01T12:49:02.304Z,999.90
2018-10-01T12:51:30.236Z,999.90
2018-10-01T12:53:58.172Z,999.90
2018-10-01T12:56:26.048Z,999.90
2018-10-01T12:58:53.947Z,999.90
2018-10-01T13:01:21.834Z,999.90
2018-10-01T13:03:49.701Z,999.90
2018-10-01T13:06:17.675Z,999.90
2018-10-01T13:08:45.458Z,999.90
2018-10-01T13:11:15.796Z,999.90
2018-10-01T13:13:43.705Z,999.90
2018-10-01T13:16:11.568Z,999.90
2018-10-01T13:18:39.696Z,999.90
2018-10-01T13:21:07.841Z,980.77
2018-10-01T13:23:35.976Z,938.40
2018-10-01T13:26:04.159Z,964.20
2018-10-01T13:28:32.048Z,939.13
2018-10-01T13:31:00.004Z,999.90
2018-10-01T13:33:28.055Z,911.70
2018-10-01T13:35:56.157Z,946.23
2018-10-01T13:38:24.052Z,999.90
2018-10-01T13:40:52.108Z,963.03
2018-10-01T13:43:20.177Z,999.90
2018-10-01T13:45:48.250Z,999.90
2018-10-01T13:48:16.164Z,999.90
2018-10-01T13:50:44.000Z,999.90
2018-10-01T13:53:12.072Z,999.90
2018-10-01T13:55:39.944Z,999.90
2018-10-01T13:58:07.887Z,999.90
2018-10-01T14:00:35.932Z,999.90
2018-10-01T14:03:03.816Z,999.90
2018-10-01T14:05:31.900Z,999.90
2018-10-01T14:07:59.959Z,999.90
2018-10-01T14:10:28.015Z,999.90
2018-10-01T14:12:56.131Z,999.90
2018-10-01T14:15:24.164Z,999.90
2018-10-01T14:17:52.238Z,999.90
2018-10-01T14:20:20.458Z,999.90
2018-10-01T14:22:48.515Z,999.90
2018-10-01T14:25:16.609Z,999.90
2018-10-01T14:27:44.651Z,999.90
2018-10-01T14:30:12.708Z,999.90
2018-10-01T14:32:40.775Z,999.90
2018-10-01T14:35:08.659Z,999.90
2018-10-01T14:37:36.528Z,999.90
2018-10-01T14:40:04.563Z,999.90
2018-10-01T14:42:32.680Z,999.90
2018-10-01T14:45:00.680Z,999.90
2018-10-01T14:47:28.747Z,999.90
2018-10-01T14:49:56.807Z,999.90
2018-10-01T14:52:24.674Z,999.90
2018-10-01T14:54:52.607Z,999.90
2018-10-01T14:57:20.475Z,999.90
2018-10-01T14:59:48.414Z,999.90
2018-10-01T15:02:16.451Z,999.90
2018-10-01T15:04:44.306Z,999.90
2018-10-01T15:07:12.167Z,999.90
2018-10-01T15:09:40.220Z,999.90
2018-10-01T15:12:08.404Z,999.90
2018-10-01T15:14:36.391Z,999.90
2018-10-01T15:17:04.271Z,999.90
2018-10-01T15:19:32.180Z,999.90
2018-10-01T15:22:00.123Z,999.90
2018-10-01T15:24:28.100Z,999.90
2018-10-01T15:26:55.907Z,999.90
2018-10-01T15:29:23.909Z,999.90
2018-10-01T15:31:52.112Z,999.90
2018-10-01T15:34:20.215Z,995.47
2018-10-01T15:36:48.080Z,999.90
2018-10-01T15:39:15.993Z,995.00
2018-10-01T15:41:44.022Z,999.90
2018-10-01T15:44:11.909Z,996.93
2018-10-01T15:46:39.836Z,999.90
2018-10-01T15:49:07.808Z,999.90
2018-10-01T15:51:37.092Z,999.90
2018-10-01T15:54:05.187Z,999.90
2018-10-01T15:56:33.208Z,999.90
2018-10-01T15:59:01.128Z,999.90
2018-10-01T16:01:29.305Z,947.50
2018-10-01T16:03:57.341Z,898.67
2018-10-01T16:06:25.241Z,889.70
2018-10-01T16:08:53.123Z,910.80
2018-10-01T16:11:21.478Z,939.13
2018-10-01T16:13:49.319Z,956.17
2018-10-01T16:16:17.203Z,985.97
2018-10-01T16:18:45.141Z,903.27
2018-10-01T16:21:13.168Z,961.93
2018-10-01T16:23:41.155Z,953.17
2018-10-01T16:26:09.023Z,918.33
2018-10-01T16:28:36.968Z,901.20
2018-10-01T16:31:04.940Z,999.90
2018-10-01T16:33:33.259Z,961.13
2018-10-01T16:36:01.158Z,942.20
2018-10-01T16:38:29.039Z,983.23
2018-10-01T16:40:56.915Z,999.77
2018-10-01T16:43:24.786Z,949.20
2018-10-01T16:45:52.730Z,962.40
2018-10-01T16:48:20.707Z,953.60
2018-10-01T16:50:48.572Z,922.13
2018-10-01T16:53:17.026Z,905.70
2018-10-01T16:55:45.679Z,926.13
2018-10-01T16:58:13.607Z,931.30
2018-10-01T17:00:41.463Z,953.97
2018-10-01T17:03:09.337Z,953.83
2018-10-01T17:05:37.268Z,942.97
2018-10-01T17:08:05.177Z,942.50
2018-10-01T17:10:33.054Z,911.83
2018-10-01T17:13:00.983Z,974.50
2018-10-01T17:15:28.870Z,923.00
2018-10-01T17:17:56.738Z,878.90
2018-10-01T17:20:24.755Z,937.90
2018-10-01T17:22:52.799Z,933.63
2018-10-01T17:25:20.737Z,955.83
2018-10-01T17:27:48.599Z,908.27
2018-10-01T17:30:16.555Z,978.27
2018-10-01T17:32:44.359Z,957.90
2018-10-01T17:35:12.235Z,977.27
2018-10-01T17:37:40.098Z,997.27
2018-10-01T17:40:07.995Z,944.70
2018-10-01T17:42:35.935Z,937.07
2018-10-01T17:45:03.847Z,943.23
2018-10-01T17:47:31.683Z,925.43
2018-10-01T17:49:59.564Z,912.30
2018-10-01T17:52:27.431Z,943.57
2018-10-01T17:54:55.360Z,916.93
2018-10-01T17:57:23.235Z,924.80
2018-10-01T17:59:51.226Z,901.37
2018-10-01T18:02:19.228Z,913.23
2018-10-01T18:04:47.109Z,932.37
2018-10-01T18:07:14.976Z,891.63
2018-10-01T18:09:42.919Z,950.43
2018-10-01T18:12:10.944Z,932.50
2018-10-01T18:14:38.799Z,916.00
2018-10-01T18:17:06.696Z,930.73
2018-10-01T18:19:34.574Z,932.07
2018-10-01T18:22:02.796Z,923.50
2018-10-01T18:24:30.899Z,943.53
2018-10-01T18:26:58.836Z,936.40
2018-10-01T18:29:26.887Z,932.97
2018-10-01T18:31:54.943Z,966.53
2018-10-01T18:34:23.716Z,984.17
2018-10-01T18:36:51.615Z,952.63
2018-10-01T18:39:21.787Z,982.73
2018-10-01T18:41:49.771Z,999.90
2018-10-01T18:44:17.707Z,999.90
2018-10-01T18:46:46.587Z,999.90
2018-10-01T18:49:14.923Z,999.90
2018-10-01T18:51:42.958Z,999.90
2018-10-01T18:54:10.996Z,999.90
2018-10-01T18:56:38.954Z,999.90
2018-10-01T18:59:06.811Z,999.90
2018-10-01T19:01:34.845Z,999.90
2018-10-01T19:04:02.799Z,999.90
2018-10-01T19:06:30.763Z,999.90
2018-10-01T19:08:58.778Z,999.90
2018-10-01T19:11:26.677Z,999.90
2018-10-01T19:13:54.549Z,999.90
2018-10-01T19:16:22.575Z,999.90
2018-10-01T19:18:50.519Z,999.90
2018-10-01T19:21:18.476Z,999.90
2018-10-01T19:23:46.509Z,999.90
2018-10-01T19:26:14.333Z,999.90
2018-10-01T19:28:42.280Z,999.90
2018-10-01T19:31:10.151Z,999.90
2018-10-01T19:33:38.016Z,999.90
2018-10-01T19:36:06.152Z,999.90
2018-10-01T19:38:33.953Z,999.90
2018-10-01T19:41:02.042Z,999.90
2018-10-01T19:43:30.003Z,999.90
2018-10-01T19:45:57.791Z,981.37
2018-10-01T19:48:25.679Z,999.90
2018-10-01T19:50:53.604Z,999.70
2018-10-01T19:53:21.520Z,999.90
2018-10-01T19:55:49.471Z,999.90
2018-10-01T19:58:17.330Z,983.43
2018-10-01T20:00:45.360Z,992.67
2018-10-01T20:03:13.344Z,999.90
2018-10-01T20:05:41.142Z,999.90
2018-10-01T20:08:09.003Z,995.27
2018-10-01T20:10:37.531Z,999.90
2018-10-01T20:13:05.705Z,992.77
2018-10-01T20:15:33.755Z,999.90
2018-10-01T20:18:01.627Z,999.90
2018-10-01T20:20:29.488Z,999.90
2018-10-01T20:22:57.362Z,999.90
2018-10-01T20:25:25.544Z,999.90
2018-10-01T20:27:53.550Z,999.90
2018-10-01T20:30:21.419Z,999.90
2018-10-01T20:32:49.193Z,970.33
2018-10-01T20:35:17.255Z,999.90
2018-10-01T20:37:45.449Z,999.90
2018-10-01T20:40:13.318Z,999.90
2018-10-01T20:42:41.391Z,999.90
2018-10-01T20:45:09.255Z,999.90
2018-10-01T20:47:37.132Z,999.90
2018-10-01T20:50:05.116Z,999.90
2018-10-01T20:52:33.020Z,999.90
2018-10-01T20:55:00.836Z,999.90
2018-10-01T20:57:28.875Z,999.90
2018-10-01T20:59:56.928Z,999.90
2018-10-01T21:02:25.335Z,999.90
2018-10-01T21:04:53.199Z,999.90
2018-10-01T21:07:21.071Z,999.90
2018-10-01T21:09:49.145Z,999.90
2018-10-01T21:12:17.240Z,999.90
2018-10-01T21:14:45.294Z,999.90
2018-10-01T21:17:13.343Z,999.90
2018-10-01T21:19:41.209Z,999.90
2018-10-01T21:22:09.293Z,999.90
2018-10-01T21:24:37.164Z,999.90
2018-10-01T21:27:05.556Z,981.40
2018-10-01T21:29:33.627Z,999.90
2018-10-01T21:32:01.699Z,999.90
2018-10-01T21:34:29.583Z,999.90
2018-10-01T21:36:58.523Z,999.90
2018-10-01T21:39:32.103Z,999.90
2018-10-01T21:42:00.008Z,999.90
2018-10-01T21:44:28.070Z,999.90
2018-10-01T21:46:56.436Z,999.90
2018-10-01T21:49:24.417Z,999.90
2018-10-01T21:51:52.603Z,999.90
2018-10-01T21:54:20.479Z,999.90
2018-10-01T21:56:48.339Z,999.90
2018-10-01T21:59:16.231Z,999.90
2018-10-01T22:01:44.135Z,999.90
2018-10-01T22:04:12.025Z,999.90
2018-10-01T22:06:40.076Z,999.90
2018-10-01T22:09:08.579Z,999.90
2018-10-01T22:11:36.542Z,999.90
2018-10-01T22:14:05.642Z,999.90
2018-10-01T22:16:33.795Z,999.90
2018-10-01T22:19:01.764Z,999.90
2018-10-01T22:21:29.757Z,999.90
2018-10-01T22:23:57.858Z,999.90
2018-10-01T22:26:25.771Z,999.90
2018-10-01T22:28:53.837Z,999.90
2018-10-01T22:31:22.012Z,999.90
2018-10-01T22:33:49.924Z,999.90
2018-10-01T22:36:17.805Z,999.90
2018-10-01T22:38:45.749Z,999.90
2018-10-01T22:41:13.615Z,999.90
2018-10-01T22:43:41.486Z,999.90
2018-10-01T22:46:09.363Z,999.90
2018-10-01T22:48:37.234Z,999.90
2018-10-01T22:51:05.367Z,999.90
2018-10-01T22:53:33.411Z,999.90
2018-10-01T22:56:01.522Z,999.90
2018-10-01T22:58:29.406Z,999.90
2018-10-01T23:00:57.471Z,999.90
2018-10-01T23:03:25.528Z,999.90
2018-10-01T23:05:53.415Z,999.90
2018-10-01T23:08:21.580Z,999.90
2018-10-01T23:10:49.747Z,999.90
2018-10-01T23:13:17.808Z,999.90
2018-10-01T23:15:46.145Z,999.90
2018-10-01T23:18:14.318Z,999.90
2018-10-01T23:20:42.202Z,999.90
2018-10-01T23:23:10.472Z,999.90
2018-10-01T23:25:38.334Z,999.90
2018-10-01T23:28:06.198Z,999.90
2018-10-01T23:30:34.185Z,999.90
2018-10-01T23:33:02.349Z,999.90
2018-10-01T23:35:30.448Z,999.90
2018-10-01T23:37:58.514Z,999.90
2018-10-01T23:40:26.388Z,999.90
2018-10-01T23:42:54.576Z,999.90
2018-10-01T23:45:22.789Z,999.90
2018-10-01T23:47:51.011Z,999.90
2018-10-01T23:50:18.929Z,999.90
2018-10-01T23:52:47.055Z,999.90
2018-10-01T23:55:14.919Z,999.90
2018-10-01T23:57:43.343Z,999.90
